sensor_id;sensor_type;location;lat;lon;timestamp;temperature;humidity
34153;DHT22;20426;48.372;10.888;2022-09-27T00:00:16;12.30;99.90
34153;DHT22;20426;48.372;10.888;2022-09-27T00:00:47;12.30;99.90
34153;DHT22;20426;48.372;10.888;2022-09-27T00:01:18;12.30;99.90
34153;DHT22;20426;48.372;10.888;2022-09-27T00:01:49;12.30;99.90
34153;DHT22;20426;48.372;10.888;2022-09-27T00:02:20;12.30;99.90
34153;DHT22;20426;48.372;10.888;2022-09-27T00:02:50;12.30;99.90
34153;DHT22;20426;48.372;10.888;2022-09-27T00:03:21;12.30;99.90
34153;DHT22;20426;48.372;10.888;2022-09-27T00:03:53;12.30;99.90
34153;DHT22;20426;48.372;10.888;2022-09-27T00:04:25;12.30;99.90
34153;DHT22;20426;48.372;10.888;2022-09-27T00:04:55;12.30;99.90
34153;DHT22;20426;48.372;10.888;2022-09-27T00:05:28;12.40;99.90
34153;DHT22;20426;48.372;10.888;2022-09-27T00:06:04;12.30;99.90
34153;DHT22;20426;48.372;10.888;2022-09-27T00:06:35;12.30;99.90
34153;DHT22;20426;48.372;10.888;2022-09-27T00:07:06;12.30;99.90
34153;DHT22;20426;48.372;10.888;2022-09-27T00:07:37;12.30;99.90
34153;DHT22;20426;48.372;10.888;2022-09-27T00:08:08;12.40;99.90
34153;DHT22;20426;48.372;10.888;2022-09-27T00:08:38;12.40;99.90
34153;DHT22;20426;48.372;10.888;2022-09-27T00:09:09;12.40;99.90
34153;DHT22;20426;48.372;10.888;2022-09-27T00:09:40;12.40;99.90
34153;DHT22;20426;48.372;10.888;2022-09-27T00:10:11;12.40;99.90
34153;DHT22;20426;48.372;10.888;2022-09-27T00:10:42;12.40;99.90
34153;DHT22;20426;48.372;10.888;2022-09-27T00:11:54;12.40;99.90
34153;DHT22;20426;48.372;10.888;2022-09-27T00:12:17;12.40;99.90
34153;DHT22;20426;48.372;10.888;2022-09-27T00:12:48;12.40;99.90
34153;DHT22;20426;48.372;10.888;2022-09-27T00:13:19;12.40;99.90
34153;DHT22;20426;48.372;10.888;2022-09-27T00:13:50;12.30;99.90
34153;DHT22;20426;48.372;10.888;2022-09-27T00:14:21;12.40;99.90
34153;DHT22;20426;48.372;10.888;2022-09-27T00:14:52;12.30;99.90
34153;DHT22;20426;48.372;10.888;2022-09-27T00:15:23;12.30;99.90
34153;DHT22;20426;48.372;10.888;2022-09-27T00:15:57;12.30;99.90
34153;DHT22;20426;48.372;10.888;2022-09-27T00:16:31;12.30;99.90
34153;DHT22;20426;48.372;10.888;2022-09-27T00:17:02;12.30;99.90
34153;DHT22;20426;48.372;10.888;2022-09-27T00:17:33;12.30;99.90
34153;DHT22;20426;48.372;10.888;2022-09-27T00:18:04;12.30;99.90
34153;DHT22;20426;48.372;10.888;2022-09-27T00:18:35;12.40;99.90
34153;DHT22;20426;48.372;10.888;2022-09-27T00:19:10;12.30;99.90
34153;DHT22;20426;48.372;10.888;2022-09-27T00:19:41;12.30;99.90
34153;DHT22;20426;48.372;10.888;2022-09-27T00:20:11;12.30;99.90
34153;DHT22;20426;48.372;10.888;2022-09-27T00:20:42;12.30;99.90
34153;DHT22;20426;48.372;10.888;2022-09-27T00:21:13;12.30;99.90
34153;DHT22;20426;48.372;10.888;2022-09-27T00:21:45;12.30;99.90
34153;DHT22;20426;48.372;10.888;2022-09-27T00:22:16;12.30;99.90
34153;DHT22;20426;48.372;10.888;2022-09-27T00:22:48;12.30;99.90
34153;DHT22;20426;48.372;10.888;2022-09-27T00:23:19;12.30;99.90
34153;DHT22;20426;48.372;10.888;2022-09-27T00:23:49;12.30;99.90
34153;DHT22;20426;48.372;10.888;2022-09-27T00:24:21;12.30;99.90
34153;DHT22;20426;48.372;10.888;2022-09-27T00:24:52;12.30;99.90
34153;DHT22;20426;48.372;10.888;2022-09-27T00:25:23;12.30;99.90
34153;DHT22;20426;48.372;10.888;2022-09-27T00:25:58;12.30;99.90
34153;DHT22;20426;48.372;10.888;2022-09-27T00:26:29;12.30;99.90
34153;DHT22;20426;48.372;10.888;2022-09-27T00:26:59;12.20;99.90
34153;DHT22;20426;48.372;10.888;2022-09-27T00:27:30;12.20;99.90
34153;DHT22;20426;48.372;10.888;2022-09-27T00:28:01;12.20;99.90
34153;DHT22;20426;48.372;10.888;2022-09-27T00:28:33;12.20;99.90
34153;DHT22;20426;48.372;10.888;2022-09-27T00:29:04;12.20;99.90
34153;DHT22;20426;48.372;10.888;2022-09-27T00:29:35;12.20;99.90
34153;DHT22;20426;48.372;10.888;2022-09-27T00:30:08;12.20;99.90
34153;DHT22;20426;48.372;10.888;2022-09-27T00:30:41;12.20;99.90
34153;DHT22;20426;48.372;10.888;2022-09-27T00:31:18;12.20;99.90
34153;DHT22;20426;48.372;10.888;2022-09-27T00:31:50;12.20;99.90
34153;DHT22;20426;48.372;10.888;2022-09-27T00:32:21;12.20;99.90
34153;DHT22;20426;48.372;10.888;2022-09-27T00:32:51;12.20;99.90
34153;DHT22;20426;48.372;10.888;2022-09-27T00:33:23;12.20;99.90
34153;DHT22;20426;48.372;10.888;2022-09-27T00:33:58;12.20;99.90
34153;DHT22;20426;48.372;10.888;2022-09-27T00:34:29;12.20;99.90
34153;DHT22;20426;48.372;10.888;2022-09-27T00:34:59;12.10;99.90
34153;DHT22;20426;48.372;10.888;2022-09-27T00:35:30;12.20;99.90
34153;DHT22;20426;48.372;10.888;2022-09-27T00:36:05;12.10;99.90
34153;DHT22;20426;48.372;10.888;2022-09-27T00:36:36;12.10;99.90
34153;DHT22;20426;48.372;10.888;2022-09-27T00:37:07;12.10;99.90
34153;DHT22;20426;48.372;10.888;2022-09-27T00:37:38;12.10;99.90
34153;DHT22;20426;48.372;10.888;2022-09-27T00:38:09;12.10;99.90
34153;DHT22;20426;48.372;10.888;2022-09-27T00:38:41;12.10;99.90
34153;DHT22;20426;48.372;10.888;2022-09-27T00:39:11;12.10;99.90
34153;DHT22;20426;48.372;10.888;2022-09-27T00:39:42;12.10;99.90
34153;DHT22;20426;48.372;10.888;2022-09-27T00:40:14;12.00;99.90
34153;DHT22;20426;48.372;10.888;2022-09-27T00:40:45;12.00;99.90
34153;DHT22;20426;48.372;10.888;2022-09-27T00:41:26;12.00;99.90
34153;DHT22;20426;48.372;10.888;2022-09-27T00:41:57;12.00;99.90
34153;DHT22;20426;48.372;10.888;2022-09-27T00:42:28;12.00;99.90
34153;DHT22;20426;48.372;10.888;2022-09-27T00:42:59;12.00;99.90
34153;DHT22;20426;48.372;10.888;2022-09-27T00:43:43;12.00;99.90
34153;DHT22;20426;48.372;10.888;2022-09-27T00:45:31;12.00;99.90
34153;DHT22;20426;48.372;10.888;2022-09-27T00:46:03;12.00;99.90
34153;DHT22;20426;48.372;10.888;2022-09-27T00:46:46;12.00;99.90
34153;DHT22;20426;48.372;10.888;2022-09-27T00:47:28;12.00;99.90
34153;DHT22;20426;48.372;10.888;2022-09-27T00:48:03;11.90;99.90
34153;DHT22;20426;48.372;10.888;2022-09-27T00:48:35;11.90;99.90
34153;DHT22;20426;48.372;10.888;2022-09-27T00:49:26;11.90;99.90
34153;DHT22;20426;48.372;10.888;2022-09-27T00:50:37;11.90;99.90
34153;DHT22;20426;48.372;10.888;2022-09-27T00:51:08;11.90;99.90
34153;DHT22;20426;48.372;10.888;2022-09-27T00:51:41;11.90;99.90
34153;DHT22;20426;48.372;10.888;2022-09-27T00:53:02;11.90;99.90
34153;DHT22;20426;48.372;10.888;2022-09-27T00:53:42;11.80;99.90
34153;DHT22;20426;48.372;10.888;2022-09-27T00:54:17;11.80;99.90
34153;DHT22;20426;48.372;10.888;2022-09-27T00:54:52;11.80;99.90
34153;DHT22;20426;48.372;10.888;2022-09-27T00:55:28;11.80;99.90
34153;DHT22;20426;48.372;10.888;2022-09-27T00:56:04;11.80;99.90
34153;DHT22;20426;48.372;10.888;2022-09-27T00:56:36;11.80;99.90
34153;DHT22;20426;48.372;10.888;2022-09-27T00:57:07;11.80;99.90
34153;DHT22;20426;48.372;10.888;2022-09-27T00:57:38;11.80;99.90
34153;DHT22;20426;48.372;10.888;2022-09-27T00:58:12;11.80;99.90
34153;DHT22;20426;48.372;10.888;2022-09-27T00:58:51;11.70;99.90
34153;DHT22;20426;48.372;10.888;2022-09-27T00:59:32;11.70;99.90
34153;DHT22;20426;48.372;10.888;2022-09-27T01:00:08;11.70;99.90
34153;DHT22;20426;48.372;10.888;2022-09-27T01:00:44;11.70;99.90
34153;DHT22;20426;48.372;10.888;2022-09-27T01:01:15;11.70;99.90
34153;DHT22;20426;48.372;10.888;2022-09-27T01:01:48;11.70;99.90
34153;DHT22;20426;48.372;10.888;2022-09-27T01:02:19;11.70;99.90
34153;DHT22;20426;48.372;10.888;2022-09-27T01:02:52;11.70;99.90
34153;DHT22;20426;48.372;10.888;2022-09-27T01:03:33;11.70;99.90
34153;DHT22;20426;48.372;10.888;2022-09-27T01:04:09;11.70;99.90
34153;DHT22;20426;48.372;10.888;2022-09-27T01:04:40;11.60;99.90
34153;DHT22;20426;48.372;10.888;2022-09-27T01:05:14;11.60;99.90
34153;DHT22;20426;48.372;10.888;2022-09-27T01:05:45;11.60;99.90
34153;DHT22;20426;48.372;10.888;2022-09-27T01:06:18;11.60;99.90
34153;DHT22;20426;48.372;10.888;2022-09-27T01:06:50;11.60;99.90
34153;DHT22;20426;48.372;10.888;2022-09-27T01:07:21;11.60;99.90
34153;DHT22;20426;48.372;10.888;2022-09-27T01:07:52;11.60;99.90
34153;DHT22;20426;48.372;10.888;2022-09-27T01:08:26;11.50;99.90
34153;DHT22;20426;48.372;10.888;2022-09-27T01:08:56;11.60;99.90
34153;DHT22;20426;48.372;10.888;2022-09-27T01:09:28;11.60;99.90
34153;DHT22;20426;48.372;10.888;2022-09-27T01:09:58;11.50;99.90
34153;DHT22;20426;48.372;10.888;2022-09-27T01:10:35;11.50;99.90
34153;DHT22;20426;48.372;10.888;2022-09-27T01:11:24;11.50;99.90
34153;DHT22;20426;48.372;10.888;2022-09-27T01:16:04;11.40;99.90
34153;DHT22;20426;48.372;10.888;2022-09-27T01:19:19;11.40;99.90
34153;DHT22;20426;48.372;10.888;2022-09-27T01:24:21;11.30;99.90
34153;DHT22;20426;48.372;10.888;2022-09-27T01:38:32;10.90;99.90
34153;DHT22;20426;48.372;10.888;2022-09-27T01:40:51;10.90;99.90
34153;DHT22;20426;48.372;10.888;2022-09-27T01:43:08;10.90;99.90
34153;DHT22;20426;48.372;10.888;2022-09-27T01:43:28;10.90;99.90
34153;DHT22;20426;48.372;10.888;2022-09-27T01:44:08;10.90;99.90
34153;DHT22;20426;48.372;10.888;2022-09-27T01:44:51;10.80;99.90
34153;DHT22;20426;48.372;10.888;2022-09-27T01:45:51;10.80;99.90
34153;DHT22;20426;48.372;10.888;2022-09-27T01:46:49;10.90;99.90
34153;DHT22;20426;48.372;10.888;2022-09-27T01:47:27;10.90;99.90
34153;DHT22;20426;48.372;10.888;2022-09-27T01:48:06;10.80;99.90
34153;DHT22;20426;48.372;10.888;2022-09-27T01:48:46;10.80;99.90
34153;DHT22;20426;48.372;10.888;2022-09-27T01:49:27;10.80;99.90
34153;DHT22;20426;48.372;10.888;2022-09-27T01:50:02;10.80;99.90
34153;DHT22;20426;48.372;10.888;2022-09-27T01:50:58;10.80;99.90
34153;DHT22;20426;48.372;10.888;2022-09-27T01:51:56;10.80;99.90
34153;DHT22;20426;48.372;10.888;2022-09-27T01:52:36;10.80;99.90
34153;DHT22;20426;48.372;10.888;2022-09-27T01:53:14;10.80;99.90
34153;DHT22;20426;48.372;10.888;2022-09-27T01:53:53;10.80;99.90
34153;DHT22;20426;48.372;10.888;2022-09-27T01:54:43;10.80;99.90
34153;DHT22;20426;48.372;10.888;2022-09-27T01:55:16;10.80;99.90
34153;DHT22;20426;48.372;10.888;2022-09-27T01:55:50;10.80;99.90
34153;DHT22;20426;48.372;10.888;2022-09-27T01:56:39;10.80;99.90
34153;DHT22;20426;48.372;10.888;2022-09-27T01:57:16;10.80;99.90
34153;DHT22;20426;48.372;10.888;2022-09-27T01:57:54;10.70;99.90
34153;DHT22;20426;48.372;10.888;2022-09-27T01:58:37;10.80;99.90
34153;DHT22;20426;48.372;10.888;2022-09-27T01:59:55;10.70;99.90
34153;DHT22;20426;48.372;10.888;2022-09-27T02:00:27;10.70;99.90
34153;DHT22;20426;48.372;10.888;2022-09-27T02:00:59;10.70;99.90
34153;DHT22;20426;48.372;10.888;2022-09-27T02:01:33;10.70;99.90
34153;DHT22;20426;48.372;10.888;2022-09-27T02:02:08;10.70;99.90
34153;DHT22;20426;48.372;10.888;2022-09-27T02:02:47;10.70;99.90
34153;DHT22;20426;48.372;10.888;2022-09-27T02:03:23;10.70;99.90
34153;DHT22;20426;48.372;10.888;2022-09-27T02:03:55;10.70;99.90
34153;DHT22;20426;48.372;10.888;2022-09-27T02:04:31;10.70;99.90
34153;DHT22;20426;48.372;10.888;2022-09-27T02:05:05;10.70;99.90
34153;DHT22;20426;48.372;10.888;2022-09-27T02:05:49;10.70;99.90
34153;DHT22;20426;48.372;10.888;2022-09-27T02:06:24;10.70;99.90
34153;DHT22;20426;48.372;10.888;2022-09-27T02:07:01;10.60;99.90
34153;DHT22;20426;48.372;10.888;2022-09-27T02:08:42;10.60;99.90
34153;DHT22;20426;48.372;10.888;2022-09-27T02:09:41;10.70;99.90
34153;DHT22;20426;48.372;10.888;2022-09-27T02:10:14;10.60;99.90
34153;DHT22;20426;48.372;10.888;2022-09-27T02:10:48;10.60;99.90
34153;DHT22;20426;48.372;10.888;2022-09-27T02:11:22;10.60;99.90
34153;DHT22;20426;48.372;10.888;2022-09-27T02:11:55;10.60;99.90
34153;DHT22;20426;48.372;10.888;2022-09-27T02:12:32;10.60;99.90
34153;DHT22;20426;48.372;10.888;2022-09-27T02:13:15;10.60;99.90
34153;DHT22;20426;48.372;10.888;2022-09-27T02:13:57;10.60;99.90
34153;DHT22;20426;48.372;10.888;2022-09-27T02:14:34;10.60;99.90
34153;DHT22;20426;48.372;10.888;2022-09-27T02:15:12;10.60;99.90
34153;DHT22;20426;48.372;10.888;2022-09-27T02:16:29;10.50;99.90
34153;DHT22;20426;48.372;10.888;2022-09-27T02:17:58;10.50;99.90
34153;DHT22;20426;48.372;10.888;2022-09-27T02:18:40;10.50;99.90
34153;DHT22;20426;48.372;10.888;2022-09-27T02:20:39;10.50;99.90
34153;DHT22;20426;48.372;10.888;2022-09-27T02:21:11;10.50;99.90
34153;DHT22;20426;48.372;10.888;2022-09-27T02:22:34;10.50;99.90
34153;DHT22;20426;48.372;10.888;2022-09-27T02:23:21;10.50;99.90
34153;DHT22;20426;48.372;10.888;2022-09-27T02:23:56;10.50;99.90
34153;DHT22;20426;48.372;10.888;2022-09-27T02:25:00;10.50;99.90
34153;DHT22;20426;48.372;10.888;2022-09-27T02:25:53;10.50;99.90
34153;DHT22;20426;48.372;10.888;2022-09-27T02:26:34;10.50;99.90
34153;DHT22;20426;48.372;10.888;2022-09-27T02:27:16;10.50;99.90
34153;DHT22;20426;48.372;10.888;2022-09-27T02:29:40;10.50;99.90
34153;DHT22;20426;48.372;10.888;2022-09-27T02:30:12;10.50;99.90
34153;DHT22;20426;48.372;10.888;2022-09-27T02:30:44;10.40;99.90
34153;DHT22;20426;48.372;10.888;2022-09-27T02:31:15;10.50;99.90
34153;DHT22;20426;48.372;10.888;2022-09-27T02:31:46;10.40;99.90
34153;DHT22;20426;48.372;10.888;2022-09-27T02:32:17;10.40;99.90
34153;DHT22;20426;48.372;10.888;2022-09-27T02:32:48;10.40;99.90
34153;DHT22;20426;48.372;10.888;2022-09-27T02:33:22;10.40;99.90
34153;DHT22;20426;48.372;10.888;2022-09-27T02:34:06;10.40;99.90
34153;DHT22;20426;48.372;10.888;2022-09-27T02:34:39;10.40;99.90
34153;DHT22;20426;48.372;10.888;2022-09-27T02:35:30;10.40;99.90
34153;DHT22;20426;48.372;10.888;2022-09-27T02:36:01;10.40;99.90
34153;DHT22;20426;48.372;10.888;2022-09-27T02:36:32;10.40;99.90
34153;DHT22;20426;48.372;10.888;2022-09-27T02:37:03;10.40;99.90
34153;DHT22;20426;48.372;10.888;2022-09-27T02:37:34;10.40;99.90
34153;DHT22;20426;48.372;10.888;2022-09-27T02:38:05;10.40;99.90
34153;DHT22;20426;48.372;10.888;2022-09-27T02:38:37;10.40;99.90
34153;DHT22;20426;48.372;10.888;2022-09-27T02:39:08;10.40;99.90
34153;DHT22;20426;48.372;10.888;2022-09-27T02:39:39;10.40;99.90
34153;DHT22;20426;48.372;10.888;2022-09-27T02:40:10;10.40;99.90
34153;DHT22;20426;48.372;10.888;2022-09-27T02:40:45;10.40;99.90
34153;DHT22;20426;48.372;10.888;2022-09-27T02:41:18;10.40;99.90
34153;DHT22;20426;48.372;10.888;2022-09-27T02:41:50;10.50;99.90
34153;DHT22;20426;48.372;10.888;2022-09-27T02:42:21;10.40;99.90
34153;DHT22;20426;48.372;10.888;2022-09-27T02:42:52;10.40;99.90
34153;DHT22;20426;48.372;10.888;2022-09-27T02:43:26;10.40;99.90
34153;DHT22;20426;48.372;10.888;2022-09-27T02:44:01;10.40;99.90
34153;DHT22;20426;48.372;10.888;2022-09-27T02:44:33;10.40;99.90
34153;DHT22;20426;48.372;10.888;2022-09-27T02:45:05;10.40;99.90
34153;DHT22;20426;48.372;10.888;2022-09-27T02:48:56;10.40;99.90
34153;DHT22;20426;48.372;10.888;2022-09-27T02:55:22;10.40;99.90
34153;DHT22;20426;48.372;10.888;2022-09-27T02:56:23;10.30;99.90
34153;DHT22;20426;48.372;10.888;2022-09-27T02:57:37;10.30;99.90
34153;DHT22;20426;48.372;10.888;2022-09-27T02:58:21;10.30;99.90
34153;DHT22;20426;48.372;10.888;2022-09-27T03:00:11;10.30;99.90
34153;DHT22;20426;48.372;10.888;2022-09-27T03:02:03;10.30;99.90
34153;DHT22;20426;48.372;10.888;2022-09-27T03:03:04;10.30;99.90
34153;DHT22;20426;48.372;10.888;2022-09-27T03:03:51;10.30;99.90
34153;DHT22;20426;48.372;10.888;2022-09-27T03:04:38;10.30;99.90
34153;DHT22;20426;48.372;10.888;2022-09-27T03:05:15;10.30;99.90
34153;DHT22;20426;48.372;10.888;2022-09-27T03:06:05;10.30;99.90
34153;DHT22;20426;48.372;10.888;2022-09-27T03:06:40;10.40;99.90
34153;DHT22;20426;48.372;10.888;2022-09-27T03:07:13;10.30;99.90
34153;DHT22;20426;48.372;10.888;2022-09-27T03:07:45;10.30;99.90
34153;DHT22;20426;48.372;10.888;2022-09-27T03:08:16;10.30;99.90
34153;DHT22;20426;48.372;10.888;2022-09-27T03:08:46;10.30;99.90
34153;DHT22;20426;48.372;10.888;2022-09-27T03:09:23;10.40;99.90
34153;DHT22;20426;48.372;10.888;2022-09-27T03:09:54;10.40;99.90
34153;DHT22;20426;48.372;10.888;2022-09-27T03:10:27;10.30;99.90
34153;DHT22;20426;48.372;10.888;2022-09-27T03:10:58;10.30;99.90
34153;DHT22;20426;48.372;10.888;2022-09-27T03:11:28;10.30;99.90
34153;DHT22;20426;48.372;10.888;2022-09-27T03:11:59;10.40;99.90
34153;DHT22;20426;48.372;10.888;2022-09-27T03:12:30;10.30;99.90
34153;DHT22;20426;48.372;10.888;2022-09-27T03:13:01;10.30;99.90
34153;DHT22;20426;48.372;10.888;2022-09-27T03:13:34;10.30;99.90
34153;DHT22;20426;48.372;10.888;2022-09-27T03:14:08;10.40;99.90
34153;DHT22;20426;48.372;10.888;2022-09-27T03:14:39;10.30;99.90
34153;DHT22;20426;48.372;10.888;2022-09-27T03:15:10;10.30;99.90
34153;DHT22;20426;48.372;10.888;2022-09-27T03:15:40;10.40;99.90
34153;DHT22;20426;48.372;10.888;2022-09-27T03:16:11;10.40;99.90
34153;DHT22;20426;48.372;10.888;2022-09-27T03:16:42;10.40;99.90
34153;DHT22;20426;48.372;10.888;2022-09-27T03:17:13;10.40;99.90
34153;DHT22;20426;48.372;10.888;2022-09-27T03:17:44;10.40;99.90
34153;DHT22;20426;48.372;10.888;2022-09-27T03:18:14;10.40;99.90
34153;DHT22;20426;48.372;10.888;2022-09-27T03:18:45;10.40;99.90
34153;DHT22;20426;48.372;10.888;2022-09-27T03:19:16;10.40;99.90
34153;DHT22;20426;48.372;10.888;2022-09-27T03:19:47;10.40;99.90
34153;DHT22;20426;48.372;10.888;2022-09-27T03:20:17;10.40;99.90
34153;DHT22;20426;48.372;10.888;2022-09-27T03:20:48;10.40;99.90
34153;DHT22;20426;48.372;10.888;2022-09-27T03:21:19;10.40;99.90
34153;DHT22;20426;48.372;10.888;2022-09-27T03:21:50;10.40;99.90
34153;DHT22;20426;48.372;10.888;2022-09-27T03:22:20;10.40;99.90
34153;DHT22;20426;48.372;10.888;2022-09-27T03:22:51;10.40;99.90
34153;DHT22;20426;48.372;10.888;2022-09-27T03:23:22;10.40;99.90
34153;DHT22;20426;48.372;10.888;2022-09-27T03:23:53;10.40;99.90
34153;DHT22;20426;48.372;10.888;2022-09-27T03:24:23;10.40;99.90
34153;DHT22;20426;48.372;10.888;2022-09-27T03:24:54;10.40;99.90
34153;DHT22;20426;48.372;10.888;2022-09-27T03:25:26;10.40;99.90
34153;DHT22;20426;48.372;10.888;2022-09-27T03:25:56;10.40;99.90
34153;DHT22;20426;48.372;10.888;2022-09-27T03:26:27;10.40;99.90
34153;DHT22;20426;48.372;10.888;2022-09-27T03:26:58;10.40;99.90
34153;DHT22;20426;48.372;10.888;2022-09-27T03:27:29;10.40;99.90
34153;DHT22;20426;48.372;10.888;2022-09-27T03:27:59;10.40;99.90
34153;DHT22;20426;48.372;10.888;2022-09-27T03:28:30;10.40;99.90
34153;DHT22;20426;48.372;10.888;2022-09-27T03:29:01;10.40;99.90
34153;DHT22;20426;48.372;10.888;2022-09-27T03:29:32;10.40;99.90
34153;DHT22;20426;48.372;10.888;2022-09-27T03:30:03;10.40;99.90
34153;DHT22;20426;48.372;10.888;2022-09-27T03:30:35;10.40;99.90
34153;DHT22;20426;48.372;10.888;2022-09-27T03:31:07;10.40;99.90
34153;DHT22;20426;48.372;10.888;2022-09-27T03:31:38;10.40;99.90
34153;DHT22;20426;48.372;10.888;2022-09-27T03:32:09;10.40;99.90
34153;DHT22;20426;48.372;10.888;2022-09-27T03:32:43;10.40;99.90
34153;DHT22;20426;48.372;10.888;2022-09-27T03:33:14;10.40;99.90
34153;DHT22;20426;48.372;10.888;2022-09-27T03:33:45;10.40;99.90
34153;DHT22;20426;48.372;10.888;2022-09-27T03:34:16;10.40;99.90
34153;DHT22;20426;48.372;10.888;2022-09-27T03:34:47;10.40;99.90
34153;DHT22;20426;48.372;10.888;2022-09-27T03:35:18;10.40;99.90
34153;DHT22;20426;48.372;10.888;2022-09-27T03:35:49;10.40;99.90
34153;DHT22;20426;48.372;10.888;2022-09-27T03:36:20;10.40;99.90
34153;DHT22;20426;48.372;10.888;2022-09-27T03:36:51;10.40;99.90
34153;DHT22;20426;48.372;10.888;2022-09-27T03:37:22;10.40;99.90
34153;DHT22;20426;48.372;10.888;2022-09-27T03:37:52;10.40;99.90
34153;DHT22;20426;48.372;10.888;2022-09-27T03:38:23;10.40;99.90
34153;DHT22;20426;48.372;10.888;2022-09-27T03:38:54;10.30;99.90
34153;DHT22;20426;48.372;10.888;2022-09-27T03:39:25;10.30;99.90
34153;DHT22;20426;48.372;10.888;2022-09-27T03:39:56;10.40;99.90
34153;DHT22;20426;48.372;10.888;2022-09-27T03:40:26;10.30;99.90
34153;DHT22;20426;48.372;10.888;2022-09-27T03:40:57;10.30;99.90
34153;DHT22;20426;48.372;10.888;2022-09-27T03:41:28;10.40;99.90
34153;DHT22;20426;48.372;10.888;2022-09-27T03:41:59;10.30;99.90
34153;DHT22;20426;48.372;10.888;2022-09-27T03:42:29;10.30;99.90
34153;DHT22;20426;48.372;10.888;2022-09-27T03:43:00;10.40;99.90
34153;DHT22;20426;48.372;10.888;2022-09-27T03:43:31;10.30;99.90
34153;DHT22;20426;48.372;10.888;2022-09-27T03:44:02;10.30;99.90
34153;DHT22;20426;48.372;10.888;2022-09-27T03:44:33;10.40;99.90
34153;DHT22;20426;48.372;10.888;2022-09-27T03:45:04;10.40;99.90
34153;DHT22;20426;48.372;10.888;2022-09-27T03:45:35;10.40;99.90
34153;DHT22;20426;48.372;10.888;2022-09-27T03:46:06;10.40;99.90
34153;DHT22;20426;48.372;10.888;2022-09-27T03:46:36;10.40;99.90
34153;DHT22;20426;48.372;10.888;2022-09-27T03:47:07;10.40;99.90
34153;DHT22;20426;48.372;10.888;2022-09-27T03:47:41;10.40;99.90
34153;DHT22;20426;48.372;10.888;2022-09-27T03:48:11;10.30;99.90
34153;DHT22;20426;48.372;10.888;2022-09-27T03:48:42;10.40;99.90
34153;DHT22;20426;48.372;10.888;2022-09-27T03:49:13;10.40;99.90
34153;DHT22;20426;48.372;10.888;2022-09-27T03:49:44;10.30;99.90
34153;DHT22;20426;48.372;10.888;2022-09-27T03:50:15;10.40;99.90
34153;DHT22;20426;48.372;10.888;2022-09-27T03:50:46;10.40;99.90
34153;DHT22;20426;48.372;10.888;2022-09-27T03:51:16;10.40;99.90
34153;DHT22;20426;48.372;10.888;2022-09-27T03:51:47;10.40;99.90
34153;DHT22;20426;48.372;10.888;2022-09-27T03:52:18;10.40;99.90
34153;DHT22;20426;48.372;10.888;2022-09-27T03:52:49;10.40;99.90
34153;DHT22;20426;48.372;10.888;2022-09-27T03:53:20;10.40;99.90
34153;DHT22;20426;48.372;10.888;2022-09-27T03:53:51;10.40;99.90
34153;DHT22;20426;48.372;10.888;2022-09-27T03:54:21;10.40;99.90
34153;DHT22;20426;48.372;10.888;2022-09-27T03:54:52;10.40;99.90
34153;DHT22;20426;48.372;10.888;2022-09-27T03:55:23;10.30;99.90
34153;DHT22;20426;48.372;10.888;2022-09-27T03:55:54;10.40;99.90
34153;DHT22;20426;48.372;10.888;2022-09-27T03:56:25;10.40;99.90
34153;DHT22;20426;48.372;10.888;2022-09-27T03:56:55;10.40;99.90
34153;DHT22;20426;48.372;10.888;2022-09-27T03:57:26;10.40;99.90
34153;DHT22;20426;48.372;10.888;2022-09-27T03:57:57;10.40;99.90
34153;DHT22;20426;48.372;10.888;2022-09-27T03:58:27;10.40;99.90
34153;DHT22;20426;48.372;10.888;2022-09-27T03:58:58;10.40;99.90
34153;DHT22;20426;48.372;10.888;2022-09-27T03:59:29;10.40;99.90
34153;DHT22;20426;48.372;10.888;2022-09-27T04:00:00;10.40;99.90
34153;DHT22;20426;48.372;10.888;2022-09-27T04:00:31;10.40;99.90
34153;DHT22;20426;48.372;10.888;2022-09-27T04:01:02;10.40;99.90
34153;DHT22;20426;48.372;10.888;2022-09-27T04:01:33;10.40;99.90
34153;DHT22;20426;48.372;10.888;2022-09-27T04:02:05;10.40;99.90
34153;DHT22;20426;48.372;10.888;2022-09-27T04:02:35;10.40;99.90
34153;DHT22;20426;48.372;10.888;2022-09-27T04:03:07;10.40;99.90
34153;DHT22;20426;48.372;10.888;2022-09-27T04:03:37;10.40;99.90
34153;DHT22;20426;48.372;10.888;2022-09-27T04:04:08;10.40;99.90
34153;DHT22;20426;48.372;10.888;2022-09-27T04:04:39;10.40;99.90
34153;DHT22;20426;48.372;10.888;2022-09-27T04:05:10;10.40;99.90
34153;DHT22;20426;48.372;10.888;2022-09-27T04:05:41;10.40;99.90
34153;DHT22;20426;48.372;10.888;2022-09-27T04:06:12;10.40;99.90
34153;DHT22;20426;48.372;10.888;2022-09-27T04:06:43;10.40;99.90
34153;DHT22;20426;48.372;10.888;2022-09-27T04:07:14;10.40;99.90
34153;DHT22;20426;48.372;10.888;2022-09-27T04:07:47;10.40;99.90
34153;DHT22;20426;48.372;10.888;2022-09-27T04:08:19;10.40;99.90
34153;DHT22;20426;48.372;10.888;2022-09-27T04:08:52;10.40;99.90
34153;DHT22;20426;48.372;10.888;2022-09-27T04:09:23;10.30;99.90
34153;DHT22;20426;48.372;10.888;2022-09-27T04:09:54;10.40;99.90
34153;DHT22;20426;48.372;10.888;2022-09-27T04:10:25;10.40;99.90
34153;DHT22;20426;48.372;10.888;2022-09-27T04:10:56;10.30;99.90
34153;DHT22;20426;48.372;10.888;2022-09-27T04:11:26;10.40;99.90
34153;DHT22;20426;48.372;10.888;2022-09-27T04:11:57;10.40;99.90
34153;DHT22;20426;48.372;10.888;2022-09-27T04:12:28;10.30;99.90
34153;DHT22;20426;48.372;10.888;2022-09-27T04:12:59;10.40;99.90
34153;DHT22;20426;48.372;10.888;2022-09-27T04:13:30;10.40;99.90
34153;DHT22;20426;48.372;10.888;2022-09-27T04:14:00;10.40;99.90
34153;DHT22;20426;48.372;10.888;2022-09-27T04:14:31;10.40;99.90
34153;DHT22;20426;48.372;10.888;2022-09-27T04:15:03;10.30;99.90
34153;DHT22;20426;48.372;10.888;2022-09-27T04:15:34;10.30;99.90
34153;DHT22;20426;48.372;10.888;2022-09-27T04:16:05;10.30;99.90
34153;DHT22;20426;48.372;10.888;2022-09-27T04:16:37;10.30;99.90
34153;DHT22;20426;48.372;10.888;2022-09-27T04:17:09;10.40;99.90
34153;DHT22;20426;48.372;10.888;2022-09-27T04:17:41;10.40;99.90
34153;DHT22;20426;48.372;10.888;2022-09-27T04:18:12;10.30;99.90
34153;DHT22;20426;48.372;10.888;2022-09-27T04:18:43;10.40;99.90
34153;DHT22;20426;48.372;10.888;2022-09-27T04:19:13;10.40;99.90
34153;DHT22;20426;48.372;10.888;2022-09-27T04:19:44;10.30;99.90
34153;DHT22;20426;48.372;10.888;2022-09-27T04:20:15;10.30;99.90